ADDS METAR Data INFO
IDs: Format: Raw Decoded Include TAF

Data at: 1232 UTC 20 Jul 2017

METAR for:LFQA (Reims/Prunay Aprt, --, FR)
Text:LFQA 201200Z AUTO 24014G26KT 200V260 9999 BKN045 24/13 Q1011
Temperature: 24.0°C ( 75°F)
Dewpoint: 13.0°C ( 55°F) [RH = 50%]
Pressure (altimeter):29.85 inches Hg (1011.0 mb)
Winds:from the WSW (240 degrees) at 16 MPH (14 knots; 7.2 m/s) gusting to 30 MPH (26 knots; 13.4 m/s)
Visibility:6 or more sm (10+ km)
Ceiling:4500 feet AGL
Clouds: broken clouds at 4500 feet AGL

TAF for:LFQA (Reims/Prunay Aprt, --, FR)
Text:No data found